Time;durP1;ratioP1;P1;durP2;ratioP2;P2;SDS_P1;SDS_P2;PMS_P1;PMS_P2;Temp;Humidity;BMP_temperature;BMP_pressure;BME280_temperature;BME280_humidity;BME280_pressure;Samples;Min_cycle;Max_cycle;Signal;HPM_P1;HPM_P2
2023/05/25 00:01:12;;;;;;;10.93;4.47;;;8.90;99.90;;;;;;5027997;28;20041;-72
2023/05/25 00:03:39;;;;;;;12.63;4.95;;;8.90;99.90;;;;;;5026884;28;20060;-72
2023/05/25 00:06:06;;;;;;;16.58;4.95;;;8.80;99.90;;;;;;5024854;28;20490;-72
2023/05/25 00:08:31;;;;;;;14.45;4.78;;;8.90;99.90;;;;;;5059405;28;20103;-72
2023/05/25 00:10:57;;;;;;;9.95;4.20;;;8.90;99.90;;;;;;5026279;28;20120;-72
2023/05/25 00:13:23;;;;;;;9.43;3.65;;;8.80;99.90;;;;;;5027742;28;20064;-72
2023/05/25 00:15:49;;;;;;;10.70;4.22;;;8.80;99.90;;;;;;5025651;28;20481;-72
2023/05/25 00:18:15;;;;;;;11.45;4.70;;;8.80;99.90;;;;;;5025914;28;20120;-72
2023/05/25 00:20:43;;;;;;;9.57;4.40;;;8.70;99.90;;;;;;5026485;28;20493;-72
2023/05/25 00:23:09;;;;;;;9.85;4.15;;;8.70;99.90;;;;;;5025481;28;20746;-72
2023/05/25 00:25:35;;;;;;;10.00;4.03;;;8.60;99.90;;;;;;5025873;28;20091;-72
2023/05/25 00:28:03;;;;;;;13.45;4.20;;;8.60;99.90;;;;;;5025684;28;20493;-72
2023/05/25 00:30:29;;;;;;;11.65;4.20;;;8.50;99.90;;;;;;5024895;28;20042;-71
2023/05/25 00:32:55;;;;;;;11.95;4.50;;;8.50;99.90;;;;;;5021547;28;20127;-72
2023/05/25 00:35:20;;;;;;;12.35;4.25;;;8.50;99.90;;;;;;5024015;28;20217;-72
2023/05/25 00:37:46;;;;;;;11.57;4.32;;;8.50;99.90;;;;;;5025583;28;20047;-72
2023/05/25 00:40:16;;;;;;;11.25;4.25;;;8.40;99.90;;;;;;5026254;28;20049;-72
2023/05/25 00:42:43;;;;;;;10.18;4.38;;;8.40;99.90;;;;;;5022810;28;20048;-72
2023/05/25 00:45:09;;;;;;;10.15;3.83;;;8.30;99.90;;;;;;5026555;28;20095;-72
2023/05/25 00:47:35;;;;;;;11.70;4.53;;;8.40;99.90;;;;;;5027585;28;20041;-73
2023/05/25 00:50:02;;;;;;;15.23;5.40;;;8.30;99.90;;;;;;5025608;28;20044;-72
2023/05/25 00:52:28;;;;;;;13.77;4.45;;;8.30;99.90;;;;;;5057540;28;20041;-72
2023/05/25 00:54:55;;;;;;;13.90;5.45;;;8.30;99.90;;;;;;5024439;28;20116;-73
2023/05/25 00:57:24;;;;;;;20.00;5.60;;;8.30;99.90;;;;;;5055266;28;20124;-73
2023/05/25 00:59:53;;;;;;;15.02;5.15;;;8.20;99.90;;;;;;5058445;28;20137;-72
2023/05/25 01:02:19;;;;;;;15.10;5.43;;;8.20;99.90;;;;;;5057401;28;20045;-72
2023/05/25 01:04:53;;;;;;;13.90;4.95;;;8.20;99.90;;;;;;5025390;28;20099;-73
2023/05/25 01:07:24;;;;;;;14.68;5.78;;;8.20;99.90;;;;;;5028857;28;20041;-72
2023/05/25 01:09:57;;;;;;;19.50;5.78;;;8.10;99.90;;;;;;5062411;28;20052;-72
2023/05/25 01:12:25;;;;;;;12.73;5.53;;;8.10;99.90;;;;;;5029929;28;20033;-72
2023/05/25 01:14:52;;;;;;;13.02;5.22;;;8.10;99.90;;;;;;5029793;28;20037;-73
2023/05/25 01:17:19;;;;;;;17.92;5.65;;;8.10;99.90;;;;;;5028236;28;20037;-72
2023/05/25 01:19:46;;;;;;;12.07;5.78;;;8.10;99.90;;;;;;5027992;28;20110;-72
2023/05/25 01:22:39;;;;;;;15.52;6.40;;;8.00;99.90;;;;;;5027961;28;20142;-72
2023/05/25 01:25:21;;;;;;;12.43;4.70;;;8.00;99.90;;;;;;5030008;28;20049;-72
2023/05/25 01:28:05;;;;;;;15.15;5.40;;;8.00;99.90;;;;;;5027470;28;20057;-72
2023/05/25 01:30:32;;;;;;;15.52;5.57;;;8.00;99.90;;;;;;5028303;28;20050;-71
2023/05/25 01:32:59;;;;;;;9.35;4.90;;;8.00;99.90;;;;;;5028868;28;20041;-72
2023/05/25 01:35:26;;;;;;;10.50;5.07;;;7.90;99.90;;;;;;5029552;28;20393;-72
2023/05/25 01:37:52;;;;;;;14.50;6.00;;;7.90;99.90;;;;;;5024219;28;20049;-71
2023/05/25 01:40:18;;;;;;;11.77;5.88;;;7.90;99.90;;;;;;5028866;28;20063;-72
2023/05/25 01:42:44;;;;;;;15.35;6.22;;;7.90;99.90;;;;;;5027003;28;20049;-71
2023/05/25 01:45:12;;;;;;;14.70;6.47;;;7.90;99.90;;;;;;5030598;28;20075;-72
2023/05/25 01:47:52;;;;;;;17.98;6.72;;;7.80;99.90;;;;;;5030221;28;20145;-71
2023/05/25 01:50:33;;;;;;;12.80;5.82;;;7.80;99.90;;;;;;5060798;28;20080;-72
2023/05/25 01:53:03;;;;;;;15.82;6.80;;;7.80;99.90;;;;;;5028821;28;20404;-72
2023/05/25 01:55:35;;;;;;;17.38;7.35;;;7.80;99.90;;;;;;5028526;28;20107;-72
2023/05/25 01:58:02;;;;;;;12.40;6.28;;;7.70;99.90;;;;;;5030562;28;20088;-71
2023/05/25 02:00:32;;;;;;;15.32;6.13;;;7.80;99.90;;;;;;5030261;28;20056;-72
2023/05/25 02:02:58;;;;;;;12.77;6.15;;;7.70;99.90;;;;;;5029643;28;20136;-72
2023/05/25 02:05:25;;;;;;;13.55;5.93;;;7.70;99.90;;;;;;5028974;28;20116;-72
2023/05/25 02:07:51;;;;;;;12.40;5.38;;;7.70;99.90;;;;;;5061923;28;20121;-71
2023/05/25 02:10:17;;;;;;;14.65;5.68;;;7.70;99.90;;;;;;5027414;28;20465;-72
2023/05/25 02:12:42;;;;;;;12.65;5.13;;;7.60;99.90;;;;;;5030106;28;20033;-71
2023/05/25 02:15:09;;;;;;;14.52;6.80;;;7.70;99.90;;;;;;5030048;28;20158;-70
2023/05/25 02:17:35;;;;;;;12.65;5.45;;;7.60;99.90;;;;;;5029219;28;20045;-71
2023/05/25 02:20:05;;;;;;;8.70;5.53;;;7.60;99.90;;;;;;5026661;28;20037;-71
2023/05/25 02:22:31;;;;;;;13.52;5.68;;;7.60;99.90;;;;;;5061033;28;20047;-71
2023/05/25 02:24:57;;;;;;;10.13;5.60;;;7.60;99.90;;;;;;5027716;28;20490;-70
2023/05/25 02:27:23;;;;;;;9.18;5.47;;;7.60;99.90;;;;;;5030010;28;20087;-71
2023/05/25 02:29:48;;;;;;;8.00;5.57;;;7.60;99.90;;;;;;5028403;28;20041;-71
2023/05/25 02:32:14;;;;;;;7.70;4.70;;;7.60;99.90;;;;;;5027290;28;20064;-72
2023/05/25 02:34:40;;;;;;;9.05;5.70;;;7.50;99.90;;;;;;5028201;28;20060;-72
2023/05/25 02:37:06;;;;;;;7.40;4.80;;;7.40;99.90;;;;;;5028880;28;20037;-72
2023/05/25 02:39:32;;;;;;;7.38;4.72;;;7.40;99.90;;;;;;5027690;28;20382;-71
2023/05/25 02:41:58;;;;;;;8.27;5.53;;;7.40;99.90;;;;;;5061068;28;20041;-72
2023/05/25 02:44:23;;;;;;;9.98;5.57;;;7.40;99.90;;;;;;5027550;28;20404;-72
2023/05/25 02:46:49;;;;;;;11.07;5.70;;;7.40;99.90;;;;;;5026632;28;20072;-72
2023/05/25 02:49:14;;;;;;;11.60;6.97;;;7.40;99.90;;;;;;5027804;28;20277;-72
2023/05/25 02:51:40;;;;;;;14.52;7.20;;;7.40;99.90;;;;;;5028418;28;20064;-71
2023/05/25 02:54:06;;;;;;;10.88;6.32;;;7.40;99.90;;;;;;5055857;28;20434;-71
2023/05/25 02:56:32;;;;;;;10.88;6.30;;;7.40;99.90;;;;;;5028276;28;20077;-71
2023/05/25 02:58:57;;;;;;;13.73;6.80;;;7.50;99.90;;;;;;5028492;28;20470;-72
2023/05/25 03:01:24;;;;;;;10.52;6.25;;;7.40;99.90;;;;;;5027413;28;20128;-72
2023/05/25 03:03:53;;;;;;;10.80;5.85;;;7.40;99.90;;;;;;5028609;28;20488;-71
2023/05/25 03:06:22;;;;;;;14.35;6.25;;;7.40;99.90;;;;;;5028820;28;20634;-71
2023/05/25 03:08:48;;;;;;;11.20;5.85;;;7.30;99.90;;;;;;5027605;28;20636;-71
2023/05/25 03:11:14;;;;;;;13.40;6.75;;;7.30;99.90;;;;;;5023529;28;20091;-71
2023/05/25 03:13:40;;;;;;;12.18;6.30;;;7.30;99.90;;;;;;5027405;28;20041;-71
2023/05/25 03:16:06;;;;;;;9.45;6.70;;;7.30;99.90;;;;;;5027152;28;20038;-71
2023/05/25 03:18:32;;;;;;;14.48;7.72;;;7.20;99.90;;;;;;5023972;28;20053;-71
2023/05/25 03:20:57;;;;;;;12.85;6.60;;;7.30;99.90;;;;;;5028743;28;20406;-71
2023/05/25 03:23:23;;;;;;;14.25;7.10;;;7.20;99.90;;;;;;5027510;28;20045;-71
2023/05/25 03:25:49;;;;;;;12.77;7.00;;;7.20;99.90;;;;;;5026605;28;20118;-71
2023/05/25 03:28:15;;;;;;;15.48;6.70;;;7.30;99.90;;;;;;5058581;28;20467;-71
2023/05/25 03:30:41;;;;;;;13.18;6.00;;;7.20;99.90;;;;;;5025670;28;20128;-71
2023/05/25 03:33:06;;;;;;;13.45;7.10;;;7.20;99.90;;;;;;5059685;28;20422;-71
2023/05/25 03:35:32;;;;;;;10.30;6.65;;;7.20;99.90;;;;;;5027814;28;20401;-71
2023/05/25 03:37:58;;;;;;;12.32;6.55;;;7.20;99.90;;;;;;5027112;28;20045;-71
2023/05/25 03:40:24;;;;;;;13.52;6.40;;;7.20;99.90;;;;;;5026866;28;20405;-70
2023/05/25 03:42:49;;;;;;;13.30;6.95;;;7.20;99.90;;;;;;5026768;28;20332;-71
2023/05/25 03:45:15;;;;;;;14.07;6.88;;;7.20;99.90;;;;;;5027215;28;20056;-71
2023/05/25 03:47:41;;;;;;;14.20;7.15;;;7.20;99.90;;;;;;5027533;28;20549;-71
2023/05/25 03:50:07;;;;;;;13.30;7.85;;;7.20;99.90;;;;;;5026377;28;20109;-71
2023/05/25 03:52:33;;;;;;;11.77;6.95;;;7.20;99.90;;;;;;5027654;28;20053;-71
2023/05/25 03:55:04;;;;;;;10.85;7.20;;;7.20;99.90;;;;;;5026203;28;20060;-71
2023/05/25 03:57:29;;;;;;;14.32;6.68;;;7.20;99.90;;;;;;5027599;28;20045;-71
2023/05/25 03:59:55;;;;;;;11.45;6.10;;;7.30;99.90;;;;;;5026919;28;20065;-71
2023/05/25 04:02:21;;;;;;;13.10;7.18;;;7.20;99.90;;;;;;5027077;28;20052;-71
2023/05/25 04:04:50;;;;;;;9.02;6.20;;;7.30;99.90;;;;;;5027212;28;20065;-71
2023/05/25 04:07:17;;;;;;;9.55;5.95;;;7.30;99.90;;;;;;5027720;28;20081;-71
2023/05/25 04:09:43;;;;;;;11.32;5.95;;;7.30;99.90;;;;;;5040753;28;20119;-71
2023/05/25 04:12:09;;;;;;;9.95;5.30;;;7.40;99.90;;;;;;5028495;28;20490;-71
2023/05/25 04:14:35;;;;;;;8.80;5.43;;;7.40;99.90;;;;;;5027075;28;20466;-71
2023/05/25 04:17:01;;;;;;;8.20;4.85;;;7.30;99.90;;;;;;5028219;28;20084;-71
2023/05/25 04:19:27;;;;;;;9.30;5.47;;;7.40;99.90;;;;;;5024668;28;20105;-71
2023/05/25 04:21:52;;;;;;;8.82;5.80;;;7.50;99.90;;;;;;5028294;28;20504;-71
2023/05/25 04:24:18;;;;;;;13.50;6.55;;;7.50;99.90;;;;;;5024735;28;20037;-71
2023/05/25 04:26:45;;;;;;;12.27;5.65;;;7.50;99.90;;;;;;5026343;28;20068;-72
2023/05/25 04:29:11;;;;;;;10.90;6.40;;;7.60;99.90;;;;;;5025147;28;20417;-72
2023/05/25 04:31:38;;;;;;;12.68;6.35;;;7.70;99.90;;;;;;5024650;28;20465;-71
2023/05/25 04:34:03;;;;;;;14.68;7.80;;;7.90;99.90;;;;;;5027220;28;20029;-72
2023/05/25 04:36:31;;;;;;;13.80;6.65;;;7.90;99.90;;;;;;5026870;28;20044;-71
2023/05/25 04:39:01;;;;;;;12.15;7.80;;;8.00;99.90;;;;;;5057205;28;20084;-71
2023/05/25 04:41:28;;;;;;;14.70;8.18;;;8.10;99.90;;;;;;5059589;28;20052;-71
2023/05/25 04:43:54;;;;;;;15.82;8.55;;;8.20;99.90;;;;;;5030475;28;20085;-71
2023/05/25 04:46:20;;;;;;;18.08;9.15;;;8.30;99.90;;;;;;5030305;28;20073;-71
2023/05/25 04:48:46;;;;;;;14.15;8.55;;;8.40;99.90;;;;;;5029402;28;20049;-71
2023/05/25 04:51:12;;;;;;;18.23;9.63;;;8.50;99.90;;;;;;5061273;28;20033;-71
2023/05/25 04:53:38;;;;;;;15.73;9.20;;;8.70;99.90;;;;;;5030667;28;20442;-71
2023/05/25 04:56:04;;;;;;;20.42;9.25;;;9.00;99.90;;;;;;5031526;28;20049;-72
2023/05/25 04:58:29;;;;;;;17.90;9.15;;;9.40;99.90;;;;;;5030630;28;20113;-71
2023/05/25 05:00:55;;;;;;;22.13;10.07;;;9.60;99.90;;;;;;5029019;28;20493;-72
2023/05/25 05:03:21;;;;;;;18.85;9.43;;;9.80;99.90;;;;;;5028743;28;20041;-72
2023/05/25 05:05:47;;;;;;;16.13;9.18;;;10.10;99.90;;;;;;5031592;28;20492;-72
2023/05/25 05:08:12;;;;;;;14.40;8.80;;;10.40;99.90;;;;;;5030980;28;20049;-72
2023/05/25 05:10:38;;;;;;;18.20;8.98;;;10.60;99.90;;;;;;5027439;28;20060;-73
2023/05/25 05:13:04;;;;;;;17.92;9.07;;;10.70;99.90;;;;;;5028735;28;20055;-72
2023/05/25 05:15:29;;;;;;;14.55;8.15;;;10.90;99.90;;;;;;5029475;28;20529;-73
2023/05/25 05:17:55;;;;;;;19.27;9.38;;;11.20;99.90;;;;;;5027998;28;20132;-73
2023/05/25 05:20:21;;;;;;;18.05;8.68;;;11.50;99.90;;;;;;5030350;28;20051;-72
2023/05/25 05:22:47;;;;;;;18.15;9.02;;;11.60;99.90;;;;;;5030416;28;20116;-72
2023/05/25 05:25:13;;;;;;;20.48;8.65;;;11.50;99.90;;;;;;5064426;28;20455;-73
2023/05/25 05:27:39;;;;;;;12.13;8.48;;;11.50;99.90;;;;;;5028373;28;20052;-72
2023/05/25 05:30:05;;;;;;;23.90;8.90;;;11.40;99.90;;;;;;5031065;28;20049;-73
2023/05/25 05:32:31;;;;;;;21.00;8.32;;;11.40;99.90;;;;;;5031175;28;20382;-72
2023/05/25 05:34:56;;;;;;;14.23;8.07;;;11.40;99.90;;;;;;5029682;28;20040;-73
2023/05/25 05:37:22;;;;;;;20.67;9.18;;;11.50;99.90;;;;;;5026347;28;20037;-73
2023/05/25 05:39:48;;;;;;;18.23;9.15;;;11.50;99.90;;;;;;5031268;28;20069;-73
2023/05/25 05:42:14;;;;;;;17.08;9.00;;;11.60;99.90;;;;;;5012623;28;20103;-73
2023/05/25 05:44:39;;;;;;;17.00;8.00;;;11.70;99.90;;;;;;5058931;28;20657;-72
2023/05/25 05:47:05;;;;;;;18.52;9.90;;;11.80;99.90;;;;;;5029496;28;20166;-72
2023/05/25 05:49:33;;;;;;;24.38;8.55;;;11.80;99.90;;;;;;5026938;28;20052;-72
2023/05/25 05:51:58;;;;;;;18.70;9.40;;;12.00;99.90;;;;;;5062184;28;20046;-72
2023/05/25 05:54:26;;;;;;;21.38;10.05;;;12.10;99.90;;;;;;5028259;28;20458;-72
2023/05/25 05:56:52;;;;;;;21.45;8.73;;;12.30;99.90;;;;;;5029495;28;20049;-72
2023/05/25 05:59:20;;;;;;;21.33;9.05;;;12.30;99.90;;;;;;5031878;28;20381;-72
2023/05/25 06:01:45;;;;;;;16.38;8.07;;;12.40;99.90;;;;;;5015897;28;20048;-72
2023/05/25 06:04:11;;;;;;;18.60;8.60;;;12.50;99.90;;;;;;5028045;28;20075;-72
2023/05/25 06:06:39;;;;;;;18.27;8.30;;;12.60;99.90;;;;;;5028680;28;20447;-72
2023/05/25 06:09:05;;;;;;;20.45;9.88;;;12.60;99.90;;;;;;5031818;28;20150;-72
2023/05/25 06:11:36;;;;;;;17.88;8.07;;;12.60;99.90;;;;;;5051782;28;20449;-72
2023/05/25 06:14:05;;;;;;;16.05;7.80;;;12.70;99.90;;;;;;5030338;28;20037;-73
2023/05/25 06:16:31;;;;;;;17.55;8.38;;;12.80;99.90;;;;;;5033656;28;20067;-73
2023/05/25 06:18:57;;;;;;;18.35;7.00;;;12.90;99.90;;;;;;5031425;28;20076;-72
2023/05/25 06:21:23;;;;;;;14.23;7.10;;;13.00;99.90;;;;;;5064095;28;20233;-73
2023/05/25 06:23:49;;;;;;;16.02;8.00;;;13.00;99.90;;;;;;5012910;28;20092;-73
2023/05/25 06:26:15;;;;;;;17.73;7.30;;;13.10;99.90;;;;;;5032221;28;20424;-72
2023/05/25 06:28:41;;;;;;;12.30;6.20;;;13.10;99.90;;;;;;5032980;28;20029;-73
2023/05/25 06:31:06;;;;;;;14.65;7.05;;;13.20;99.90;;;;;;5032735;28;20032;-73
2023/05/25 06:33:32;;;;;;;15.75;6.85;;;13.30;99.90;;;;;;5032503;28;20484;-73
2023/05/25 06:35:59;;;;;;;11.77;5.60;;;13.30;99.90;;;;;;5033001;28;20080;-73
2023/05/25 06:38:28;;;;;;;14.35;5.40;;;13.40;99.90;;;;;;5030912;28;20044;-73
2023/05/25 06:40:54;;;;;;;12.85;4.50;;;13.30;99.90;;;;;;5031974;28;20400;-73
2023/05/25 06:43:20;;;;;;;14.38;4.63;;;13.30;99.90;;;;;;5031934;28;20041;-73
2023/05/25 06:45:46;;;;;;;13.52;5.18;;;13.40;99.90;;;;;;5033371;28;20040;-73
2023/05/25 06:48:11;;;;;;;14.20;5.15;;;13.50;99.90;;;;;;5033199;28;20045;-73
2023/05/25 06:50:38;;;;;;;15.40;5.65;;;13.50;99.90;;;;;;5032913;28;20041;-73
2023/05/25 06:53:04;;;;;;;13.30;4.82;;;13.70;99.90;;;;;;5011850;28;20419;-73
2023/05/25 06:55:30;;;;;;;15.27;4.40;;;13.70;99.90;;;;;;5029358;28;20124;-73
2023/05/25 06:57:56;;;;;;;13.65;4.05;;;13.70;99.90;;;;;;5028737;28;20056;-73
2023/05/25 07:00:22;;;;;;;14.77;4.18;;;13.80;99.90;;;;;;5028976;28;20045;-73
2023/05/25 07:02:48;;;;;;;13.38;3.85;;;14.00;99.90;;;;;;5026788;28;20044;-73
2023/05/25 07:05:13;;;;;;;11.50;4.13;;;14.10;99.90;;;;;;5026907;28;20124;-73
2023/05/25 07:07:39;;;;;;;14.70;3.90;;;14.20;99.90;;;;;;5029792;28;20457;-74
2023/05/25 07:10:06;;;;;;;14.25;4.75;;;14.40;99.90;;;;;;5028653;28;20041;-74
2023/05/25 07:12:31;;;;;;;12.45;3.75;;;14.60;99.90;;;;;;5028247;28;20128;-74
2023/05/25 07:14:57;;;;;;;12.85;3.70;;;14.80;99.90;;;;;;5044482;28;20116;-74
2023/05/25 07:17:23;;;;;;;13.52;3.50;;;14.90;99.90;;;;;;5059305;28;20041;-73
2023/05/25 07:19:49;;;;;;;11.27;2.70;;;14.90;99.90;;;;;;5025874;28;20054;-74
2023/05/25 07:22:18;;;;;;;11.65;3.72;;;15.00;99.90;;;;;;5027776;28;20045;-73
2023/05/25 07:24:47;;;;;;;11.77;3.25;;;15.00;99.90;;;;;;5027202;28;20136;-74
2023/05/25 07:27:13;;;;;;;15.43;3.88;;;14.90;99.90;;;;;;5061743;28;20064;-75
2023/05/25 07:29:39;;;;;;;14.30;3.65;;;14.90;99.90;;;;;;5058894;28;20047;-74
2023/05/25 07:32:06;;;;;;;11.93;3.30;;;14.90;99.90;;;;;;5024724;28;20538;-74
2023/05/25 07:34:33;;;;;;;14.13;3.08;;;14.90;99.90;;;;;;5027250;28;20136;-74
2023/05/25 07:36:58;;;;;;;10.38;3.35;;;14.90;99.90;;;;;;5025737;28;20040;-74
2023/05/25 07:39:24;;;;;;;9.50;3.28;;;14.80;99.90;;;;;;4998371;28;20045;-74
2023/05/25 07:41:50;;;;;;;10.95;3.60;;;14.80;99.90;;;;;;5044382;28;20544;-75
2023/05/25 07:44:16;;;;;;;15.10;3.75;;;14.80;99.90;;;;;;5028507;28;20498;-74
2023/05/25 07:46:42;;;;;;;12.98;3.45;;;14.70;99.90;;;;;;5026983;28;20056;-75
2023/05/25 07:49:14;;;;;;;13.82;3.75;;;14.70;99.90;;;;;;5027628;28;20045;-75
2023/05/25 07:51:43;;;;;;;15.45;3.38;;;14.60;99.90;;;;;;5026129;28;20103;-75
2023/05/25 07:54:09;;;;;;;10.07;3.00;;;14.80;99.90;;;;;;5060504;28;20069;-75
2023/05/25 07:56:35;;;;;;;11.27;2.70;;;15.00;99.90;;;;;;5044692;28;20099;-75
2023/05/25 07:59:01;;;;;;;10.20;3.53;;;15.10;99.90;;;;;;5024725;28;20042;-76
2023/05/25 08:01:27;;;;;;;16.52;4.43;;;15.20;99.90;;;;;;5026273;28;20053;-76
2023/05/25 08:03:53;;;;;;;12.65;3.83;;;15.40;99.90;;;;;;5028086;28;20085;-75
2023/05/25 08:06:19;;;;;;;16.15;3.78;;;15.40;99.90;;;;;;5028141;28;20080;-75
2023/05/25 08:08:45;;;;;;;12.32;2.95;;;15.40;99.90;;;;;;5027534;28;20037;-76
2023/05/25 08:11:11;;;;;;;13.40;2.97;;;15.40;99.90;;;;;;5028257;28;20037;-76
2023/05/25 08:13:38;;;;;;;13.80;3.30;;;15.60;99.90;;;;;;5026447;28;20323;-76
2023/05/25 08:16:04;;;;;;;13.55;3.42;;;15.60;99.90;;;;;;5026715;28;20038;-75
2023/05/25 08:18:32;;;;;;;14.45;3.83;;;15.70;99.90;;;;;;5025269;28;20116;-76
2023/05/25 08:20:58;;;;;;;11.82;3.25;;;16.00;99.90;;;;;;5028512;28;20466;-76
2023/05/25 08:23:24;;;;;;;11.00;2.97;;;16.20;99.90;;;;;;5027532;28;20038;-76
2023/05/25 08:25:50;;;;;;;15.50;3.78;;;16.10;99.90;;;;;;5028068;28;20029;-76
2023/05/25 08:28:15;;;;;;;13.25;3.50;;;16.20;99.90;;;;;;5027213;28;20037;-76
2023/05/25 08:30:44;;;;;;;14.73;3.72;;;16.20;99.90;;;;;;5027004;28;20037;-76
2023/05/25 08:33:11;;;;;;;13.52;4.00;;;16.20;99.90;;;;;;5042551;28;20041;-76
2023/05/25 08:35:39;;;;;;;16.35;4.00;;;16.20;99.90;;;;;;5027039;28;20397;-77
2023/05/25 08:38:05;;;;;;;15.43;3.55;;;16.20;99.90;;;;;;5026699;28;20041;-76
2023/05/25 08:40:31;;;;;;;18.25;4.82;;;16.20;99.90;;;;;;5028621;28;20697;-76
2023/05/25 08:42:57;;;;;;;13.98;4.18;;;16.10;99.90;;;;;;5011529;28;20040;-76
2023/05/25 08:45:23;;;;;;;14.23;3.63;;;16.20;99.90;;;;;;5024024;28;20038;-76
2023/05/25 08:47:53;;;;;;;12.52;3.50;;;15.90;99.90;;;;;;5026215;28;20043;-76
2023/05/25 08:50:19;;;;;;;14.65;4.07;;;16.00;99.90;;;;;;5027867;28;20052;-77
2023/05/25 08:52:48;;;;;;;12.88;3.38;;;15.80;99.90;;;;;;5009145;28;20054;-76
2023/05/25 08:55:16;;;;;;;16.92;4.18;;;15.70;99.90;;;;;;5023691;28;20119;-76
2023/05/25 08:57:47;;;;;;;16.73;4.18;;;15.40;99.90;;;;;;5027532;28;20045;-76
2023/05/25 09:00:14;;;;;;;17.55;3.80;;;15.30;99.90;;;;;;5025088;28;20073;-77
2023/05/25 09:02:53;;;;;;;15.13;3.35;;;15.20;99.90;;;;;;5026863;28;20124;-77
2023/05/25 09:05:19;;;;;;;14.02;3.72;;;15.10;99.90;;;;;;5027344;28;20040;-77
2023/05/25 09:07:46;;;;;;;17.55;4.25;;;15.10;99.90;;;;;;5026975;28;20056;-77
2023/05/25 09:10:13;;;;;;;17.80;4.53;;;15.20;99.90;;;;;;5024142;28;20041;-78
2023/05/25 09:12:40;;;;;;;18.48;4.47;;;15.70;99.90;;;;;;5027410;28;20068;-77
2023/05/25 09:15:09;;;;;;;18.17;4.45;;;16.50;99.90;;;;;;5024855;28;20045;-79
2023/05/25 09:17:34;;;;;;;19.00;4.47;;;17.00;99.90;;;;;;5024742;28;20046;-78
2023/05/25 09:20:00;;;;;;;21.83;4.32;;;17.30;99.90;;;;;;5026296;28;20064;-78
2023/05/25 09:22:26;;;;;;;20.58;5.05;;;17.60;99.90;;;;;;5027386;28;20061;-78
2023/05/25 09:24:52;;;;;;;16.90;5.18;;;17.70;99.90;;;;;;5026818;28;20409;-78
2023/05/25 09:27:20;;;;;;;15.82;4.32;;;17.80;99.90;;;;;;5026069;28;20558;-78
2023/05/25 09:29:48;;;;;;;15.68;4.10;;;17.60;99.90;;;;;;5028675;28;20401;-77
2023/05/25 09:32:14;;;;;;;14.18;4.05;;;17.50;99.90;;;;;;5030810;28;20098;-77
2023/05/25 09:34:45;;;;;;;17.25;5.07;;;17.10;99.90;;;;;;5029966;28;20029;-77
2023/05/25 09:37:12;;;;;;;15.13;4.35;;;16.90;99.90;;;;;;5031319;28;20034;-77
2023/05/25 09:39:40;;;;;;;18.52;4.60;;;16.60;99.90;;;;;;5030244;28;20394;-76
2023/05/25 09:42:06;;;;;;;15.73;5.07;;;16.60;99.90;;;;;;5029990;28;20099;-77
2023/05/25 09:44:32;;;;;;;17.75;4.72;;;17.00;99.90;;;;;;5027221;28;20128;-77
2023/05/25 09:46:58;;;;;;;14.25;3.28;;;17.50;99.90;;;;;;5030519;28;20072;-77
2023/05/25 09:49:24;;;;;;;14.65;4.40;;;17.90;99.90;;;;;;5029489;28;20508;-77
2023/05/25 09:51:50;;;;;;;14.80;4.38;;;18.10;99.50;;;;;;5030558;28;20041;-77
2023/05/25 09:54:16;;;;;;;18.40;4.45;;;17.80;98.00;;;;;;5030351;28;20541;-78
2023/05/25 09:56:43;;;;;;;20.65;4.80;;;17.60;97.60;;;;;;5032790;28;20048;-76
2023/05/25 09:59:08;;;;;;;18.08;5.00;;;17.60;97.30;;;;;;5031782;28;20040;-77
2023/05/25 10:01:35;;;;;;;15.20;4.13;;;17.60;99.00;;;;;;5031428;28;20067;-74
2023/05/25 10:04:01;;;;;;;16.00;4.55;;;17.90;99.80;;;;;;5031616;28;20424;-77
2023/05/25 10:06:27;;;;;;;17.33;4.47;;;18.00;98.60;;;;;;5047382;28;20040;-76
2023/05/25 10:08:56;;;;;;;14.23;4.38;;;17.90;97.50;;;;;;5032427;28;20045;-76
2023/05/25 10:11:25;;;;;;;17.88;4.50;;;17.80;97.60;;;;;;5060390;28;20076;-76
2023/05/25 10:13:52;;;;;;;17.15;4.70;;;17.60;96.70;;;;;;5031412;28;20044;-75
2023/05/25 10:16:28;;;;;;;17.80;5.00;;;17.40;97.00;;;;;;5030091;28;20106;-76
2023/05/25 10:19:04;;;;;;;14.77;4.28;;;17.10;97.70;;;;;;5032380;28;20122;-75
2023/05/25 10:21:32;;;;;;;16.00;4.20;;;16.90;97.80;;;;;;5016337;28;20520;-76
2023/05/25 10:24:07;;;;;;;15.82;4.60;;;16.90;98.40;;;;;;5017186;28;20083;-75
2023/05/25 10:26:39;;;;;;;20.00;4.32;;;17.00;98.40;;;;;;5063280;28;20400;-75
2023/05/25 10:29:06;;;;;;;17.00;4.40;;;17.20;99.00;;;;;;5030470;28;20075;-74
2023/05/25 10:31:36;;;;;;;19.95;5.13;;;17.30;97.20;;;;;;5033179;28;20155;-75
2023/05/25 10:34:02;;;;;;;19.20;4.50;;;17.10;96.90;;;;;;5032739;28;20048;-75
2023/05/25 10:36:29;;;;;;;18.95;4.80;;;17.00;97.40;;;;;;5030437;28;20125;-75
2023/05/25 10:38:55;;;;;;;21.90;5.82;;;16.90;97.40;;;;;;5031635;28;20045;-75
2023/05/25 10:41:21;;;;;;;20.77;5.35;;;16.80;97.70;;;;;;5030421;28;20424;-75
2023/05/25 10:43:48;;;;;;;18.25;4.38;;;16.70;98.40;;;;;;5031980;28;20314;-75
2023/05/25 10:46:15;;;;;;;15.10;4.32;;;17.00;99.20;;;;;;5031912;28;20037;-75
2023/05/25 10:48:48;;;;;;;16.63;4.60;;;17.60;98.40;;;;;;5029259;28;20490;-75
2023/05/25 10:51:14;;;;;;;13.82;4.20;;;18.20;96.90;;;;;;5016883;28;20401;-76
2023/05/25 10:53:46;;;;;;;21.48;4.68;;;18.50;95.40;;;;;;5063229;28;20049;-75
2023/05/25 10:56:13;;;;;;;18.27;4.20;;;18.20;93.40;;;;;;5031763;28;20102;-75
2023/05/25 10:58:45;;;;;;;17.38;4.47;;;17.70;94.00;;;;;;5031472;28;20037;-74
2023/05/25 11:01:13;;;;;;;15.25;4.72;;;17.30;95.30;;;;;;5029829;28;20045;-74
2023/05/25 11:03:56;;;;;;;17.70;4.43;;;17.60;94.30;;;;;;5029741;28;20063;-74
2023/05/25 11:06:40;;;;;;;15.07;4.57;;;18.00;93.20;;;;;;5032036;28;20131;-74
2023/05/25 11:09:06;;;;;;;18.88;4.57;;;18.20;94.50;;;;;;5064829;28;20077;-76
2023/05/25 11:11:41;;;;;;;14.88;4.57;;;18.30;93.50;;;;;;5033021;28;20045;-75
2023/05/25 11:14:29;;;;;;;17.83;5.40;;;18.20;93.40;;;;;;5014756;28;20124;-78
2023/05/25 11:17:14;;;;;;;17.02;4.55;;;18.50;93.70;;;;;;5032639;28;20029;-76
2023/05/25 11:20:05;;;;;;;20.30;5.78;;;18.50;93.30;;;;;;5027076;28;20037;-75
2023/05/25 11:22:34;;;;;;;17.30;5.05;;;18.50;93.10;;;;;;5016098;28;20598;-73
2023/05/25 11:25:01;;;;;;;14.85;4.00;;;18.50;90.70;;;;;;5035359;28;20124;-82
2023/05/25 11:27:28;;;;;;;18.98;4.85;;;18.20;90.60;;;;;;5032203;28;20079;-81
2023/05/25 11:29:57;;;;;;;17.85;4.78;;;18.10;92.00;;;;;;5016324;28;20110;-82
2023/05/25 11:32:26;;;;;;;15.73;4.30;;;18.50;91.90;;;;;;5038630;28;20253;-84
2023/05/25 11:34:53;;;;;;;15.35;4.50;;;18.60;91.30;;;;;;5047745;28;20037;-79
2023/05/25 11:37:23;;;;;;;16.58;5.38;;;18.50;91.00;;;;;;5035209;22;20171;-85
2023/05/25 11:39:53;;;;;;;17.02;4.40;;;18.60;91.70;;;;;;4992891;28;20042;-87
2023/05/25 11:42:20;;;;;;;17.02;4.95;;;18.90;91.30;;;;;;4979909;28;20471;-85
2023/05/25 11:44:46;;;;;;;18.08;4.82;;;19.10;92.00;;;;;;5007368;28;20027;-86
2023/05/25 11:47:13;;;;;;;17.65;5.53;;;19.00;90.70;;;;;;4998106;28;20078;-88
2023/05/25 11:49:48;;;;;;;19.58;5.53;;;19.00;91.50;;;;;;4980473;28;20047;-86
2023/05/25 11:52:15;;;;;;;17.13;4.43;;;19.00;90.80;;;;;;4989413;28;20038;-87
2023/05/25 11:54:42;;;;;;;18.80;5.13;;;19.00;89.10;;;;;;4978787;28;20354;-86
2023/05/25 11:57:16;;;;;;;16.30;4.90;;;19.20;88.30;;;;;;4977361;28;20046;-87
2023/05/25 11:59:53;;;;;;;23.42;5.60;;;19.30;83.50;;;;;;4999316;28;20046;-85
2023/05/25 12:02:20;;;;;;;12.82;4.85;;;19.40;82.70;;;;;;4981521;28;20042;-85
2023/05/25 12:05:00;;;;;;;18.80;5.32;;;19.50;85.60;;;;;;4999897;28;20094;-86
2023/05/25 12:07:30;;;;;;;19.05;5.53;;;19.90;84.10;;;;;;5000698;28;20049;-83
2023/05/25 12:10:06;;;;;;;15.52;4.28;;;20.10;84.50;;;;;;4985046;28;20038;-85
2023/05/25 12:12:47;;;;;;;14.73;4.88;;;20.20;83.10;;;;;;5001813;28;20042;-82
2023/05/25 12:15:15;;;;;;;20.27;5.45;;;20.30;77.80;;;;;;4981140;28;20038;-84
2023/05/25 12:17:43;;;;;;;17.73;5.22;;;20.30;77.60;;;;;;4987843;28;20504;-85
2023/05/25 12:20:11;;;;;;;15.40;5.00;;;20.30;81.90;;;;;;4988317;28;20100;-86
2023/05/25 12:22:41;;;;;;;14.73;4.75;;;20.10;77.40;;;;;;5004520;28;20045;-85
2023/05/25 12:25:09;;;;;;;15.90;4.93;;;19.70;78.90;;;;;;4989931;28;20088;-86
2023/05/25 12:27:35;;;;;;;17.10;4.95;;;19.40;79.50;;;;;;4991742;28;20074;-86
2023/05/25 12:30:04;;;;;;;12.88;4.53;;;19.40;80.90;;;;;;4995766;28;20043;-86
2023/05/25 12:32:30;;;;;;;17.67;5.30;;;19.50;81.70;;;;;;4974272;28;20042;-86
2023/05/25 12:35:05;;;;;;;21.27;5.30;;;19.60;81.40;;;;;;4972866;28;20531;-87
2023/05/25 12:37:32;;;;;;;17.70;5.22;;;19.40;79.60;;;;;;4983671;28;20487;-85
2023/05/25 12:39:58;;;;;;;20.30;5.28;;;19.10;80.20;;;;;;4991816;28;20126;-87
2023/05/25 12:42:30;;;;;;;21.05;5.07;;;18.90;80.40;;;;;;4989049;28;20173;-85